Tilden, Wisconsin
Current Conditions -  °F | °C
As of 11:56 AM on Monday 22 Dec 2014 (Local Time) from KEAU Reporting Station
Haze Haze  
Wind Chill: 30°   Ceiling: 1000
Heat Index: 37°   Visibility: 5mi
Dew Point: 32°   Wind: 9mph
Humidity: 82%   Direction: 120°ESE
Pressure: 29.69"   Gusts: NA
Location:  44.9743°N, 91.4379°W
Report Text: KEAU 221756Z 12008KT 5SM HZ OVC010 03/00 A2969 RMK AO2 SLP062 T00280000 10028 20017 58018
Loading
Personal Weather Stations






























Interactive Weather Map New forecast layout! Learn more

10-Day Weather Forecast

Advertisements
Track Severe Weather on mobile